Alliance, OH

4:03 AM EST on November 28, 2014 (GMT -0500)
Alliance WX | Change Station
CLOSE
Current Station
Personal Weather Station
Location: Alliance, OH
Elevation: 1204 ft
Nearby Weather Stations

Elev 1204 ft 40.92 °N, 81.13 °W | Updated 10 minutes ago

Overcast
Overcast
24.5 °F
Feels Like 24 °F
N
0.0
Wind Variable Wind from WNW
Gusts 1.0 mph

Today
High -- | Low -- °F
--% Chance of Precip.
Yesterday
High -- | Low -- °F
Precip. -- in
7:26 AM 4:58 PM
Waxing Crescent, 38% visible
Pressure 30.32 in
Visibility 8.0 miles
Clouds Overcast 2000 ft
Windchill 24 °F
Dew Point 22 °F
Humidity 90%
Rainfall 0.00 in
Snow Depth Not available.
UV 0 out of 12
Pollen .10 out of 12
Air Quality Not available.
Flu Activity Not available.
METAR KCAK 280851Z 32011KT 8SM -SN OVC020 M04/M07 A3027 RMK AO2 SNB51 SLP267 P0000 60001 T10391072 53014

More Conditions Fewer Conditions

Pressure 30.32 in
Visibility 8.0 miles
Clouds Overcast 2000 ft
Windchill 24 °F
Dew Point 22 °F
Humidity 90%
Rainfall 0.00 in
Snow Depth Not available.
UV 0 out of 12
Pollen .10 out of 12
Air Quality Not available.
Flu Activity Not available.
METAR KCAK 280851Z 32011KT 8SM -SN OVC020 M04/M07 A3027 RMK AO2 SNB51 SLP267 P0000 60001 T10391072 53014

More Conditions Fewer Conditions

10-Day Weather Forecast

Almanac

Astronomy

Nov. 28, 2014 Rise Set
Actual Time
Civil Twilight
Nautical Twilight
Astronomical Twilight
Moon
Length of Visible Light
Length of Day
Tomorrow will be .
, % of the Moon is Illuminated

Today's Extremes

State Highs State Lows

Community

WunderPhotos

Upload Photos

1,774,190 photos uploaded!

WunderBlogs® & News

Nearby

Air Quality

  Air Quality AQ Index Pollutant
Not available.

Snow Depth

Station Depth Elevation

Earthquake Activity

City Distance Mag. Time & Date
Minimum magnitude displayed is 2.5.

Coastal Water Temperatures

Place Temperature

Nearby Weather Stations